Time;durP1;ratioP1;P1;durP2;ratioP2;P2;SDS_P1;SDS_P2;PMS_P1;PMS_P2;Temp;Humidity;BMP_temperature;BMP_pressure;BME280_temperature;BME280_humidity;BME280_pressure;Samples;Min_cycle;Max_cycle;Signal;HPM_P1;HPM_P2
2022/12/12 00:02:24;;;;;;;11.30;7.33;;;;;;;5.50;88.71;93544.69;5009899;28;21081;-76
2022/12/12 00:04:49;;;;;;;9.03;6.37;;;;;;;5.57;88.83;93554.06;5013121;28;20184;-76
2022/12/12 00:07:14;;;;;;;8.37;5.43;;;;;;;5.56;89.25;93539.41;5004454;28;20173;-76
2022/12/12 00:09:40;;;;;;;18.57;11.10;;;;;;;5.76;89.40;93554.13;5012927;28;20681;-76
2022/12/12 00:12:05;;;;;;;22.97;15.00;;;;;;;5.69;89.70;93538.53;5004287;28;20172;-76
2022/12/12 00:14:31;;;;;;;20.93;11.80;;;;;;;5.74;89.64;93540.47;5005152;28;20177;-76
2022/12/12 00:16:56;;;;;;;13.90;9.30;;;;;;;5.88;89.73;93566.28;4992230;28;20185;-76
2022/12/12 00:19:21;;;;;;;14.30;7.23;;;;;;;5.97;88.44;93535.47;4993728;28;20181;-76
2022/12/12 00:21:47;;;;;;;8.10;5.60;;;;;;;5.94;87.67;93541.94;5013011;28;20184;-76
2022/12/12 00:24:12;;;;;;;8.47;4.47;;;;;;;6.06;87.40;93570.75;4998203;28;20256;-76
2022/12/12 00:26:38;;;;;;;6.87;4.80;;;;;;;5.86;86.74;93530.94;4992229;28;20255;-76
2022/12/12 00:29:04;;;;;;;11.93;4.30;;;;;;;6.06;87.03;93568.94;5003469;28;20196;-76
2022/12/12 00:31:30;;;;;;;4.67;2.90;;;;;;;6.09;86.64;93565.09;5012532;28;20263;-76
2022/12/12 00:33:56;;;;;;;4.77;2.90;;;;;;;6.08;86.23;93573.94;5012636;28;20301;-76
2022/12/12 00:36:24;;;;;;;2.90;2.27;;;;;;;6.04;86.54;93564.97;5002512;28;20192;-76
2022/12/12 00:38:51;;;;;;;2.87;2.13;;;;;;;5.92;86.09;93548.38;4986438;28;20270;-76
2022/12/12 00:41:17;;;;;;;2.97;1.90;;;;;;;5.92;86.18;93562.25;5006380;28;20187;-76
2022/12/12 00:43:42;;;;;;;2.80;2.00;;;;;;;5.86;86.25;93557.84;5005517;28;20363;-76
2022/12/12 00:46:11;;;;;;;3.80;2.40;;;;;;;5.79;86.51;93553.72;4993868;28;20420;-76
2022/12/12 00:48:37;;;;;;;2.20;1.93;;;;;;;5.65;85.98;93553.00;5005444;28;20271;-76
2022/12/12 00:51:08;;;;;;;2.40;2.07;;;;;;;5.72;85.31;93576.44;5003900;28;20525;-76
2022/12/12 00:53:35;;;;;;;3.05;2.53;;;;;;;5.41;85.68;93580.66;5001324;28;20421;-76
2022/12/12 00:56:00;;;;;;;4.10;2.50;;;;;;;5.39;86.75;93577.47;5002106;28;20220;-76
2022/12/12 00:58:26;;;;;;;2.40;2.03;;;;;;;5.44;85.16;93577.66;4992528;28;20176;-76
2022/12/12 01:00:52;;;;;;;2.47;2.27;;;;;;;5.35;85.33;93584.13;4994710;28;20173;-76
2022/12/12 01:03:18;;;;;;;3.03;2.10;;;;;;;5.36;85.75;93593.56;4999845;28;20176;-76
2022/12/12 01:05:43;;;;;;;2.43;2.13;;;;;;;5.38;86.17;93596.72;5001352;28;20181;-76
2022/12/12 01:08:09;;;;;;;2.80;2.43;;;;;;;5.32;86.82;93571.50;5007679;28;20537;-76
2022/12/12 01:10:35;;;;;;;2.90;2.60;;;;;;;5.32;86.13;93585.34;4994817;28;20197;-76
2022/12/12 01:13:00;;;;;;;3.17;2.60;;;;;;;5.41;86.34;93590.31;4990461;28;20521;-75
2022/12/12 01:15:26;;;;;;;3.23;2.80;;;;;;;5.40;86.49;93594.72;4990923;28;20514;-76
2022/12/12 01:17:52;;;;;;;4.67;3.10;;;;;;;5.37;87.06;93591.72;4992277;28;20177;-76
2022/12/12 01:20:26;;;;;;;4.10;3.00;;;;;;;5.40;86.08;93589.50;4991373;28;20418;-76
2022/12/12 01:22:51;;;;;;;4.43;3.00;;;;;;;5.22;86.20;93564.13;5002056;28;20399;-76
2022/12/12 01:25:17;;;;;;;4.83;3.03;;;;;;;5.38;86.23;93591.50;5011807;28;20183;-76
2022/12/12 01:27:44;;;;;;;4.23;2.90;;;;;;;5.39;87.21;93603.56;5002896;28;20260;-76
2022/12/12 01:30:13;;;;;;;2.97;2.67;;;;;;;5.45;88.42;93594.88;5002800;28;20690;-76
2022/12/12 01:32:38;;;;;;;3.30;2.70;;;;;;;5.56;88.44;93607.25;4991992;28;20299;-76
2022/12/12 01:35:07;;;;;;;3.63;3.00;;;;;;;5.62;88.77;93601.19;4992165;28;20692;-76
2022/12/12 01:37:33;;;;;;;3.63;2.80;;;;;;;5.69;88.62;93594.13;4990758;28;20284;-76
2022/12/12 01:39:59;;;;;;;3.70;2.97;;;;;;;5.69;88.47;93604.56;4990056;28;20177;-76
2022/12/12 01:42:25;;;;;;;3.33;2.77;;;;;;;5.76;88.59;93608.94;4996527;28;20584;-76
2022/12/12 01:44:52;;;;;;;3.83;3.13;;;;;;;5.72;88.62;93619.00;5006690;28;20189;-76
2022/12/12 01:47:20;;;;;;;4.80;3.90;;;;;;;5.65;88.56;93615.63;5009506;28;20184;-76
2022/12/12 01:49:55;;;;;;;4.80;3.80;;;;;;;5.63;88.43;93615.03;5011318;28;20702;-76
2022/12/12 01:52:25;;;;;;;6.27;3.70;;;;;;;5.68;89.09;93620.44;5009458;28;20183;-76
2022/12/12 01:54:55;;;;;;;5.50;3.77;;;;;;;5.50;88.67;93586.44;5001906;28;20181;-76
2022/12/12 01:57:28;;;;;;;5.47;4.30;;;;;;;5.53;88.44;93601.69;4991691;28;20185;-77
2022/12/12 01:59:54;;;;;;;5.17;3.47;;;;;;;5.51;88.35;93604.50;5005345;28;20263;-76
2022/12/12 02:02:20;;;;;;;5.70;4.57;;;;;;;5.53;88.52;93617.34;5004565;28;20256;-76
2022/12/12 02:04:45;;;;;;;6.93;4.10;;;;;;;5.38;88.07;93604.56;4991702;28;20207;-76
2022/12/12 02:07:11;;;;;;;4.93;3.57;;;;;;;5.45;88.07;93625.41;4991700;28;20177;-76
2022/12/12 02:09:37;;;;;;;6.10;4.40;;;;;;;5.08;86.90;93593.91;4998472;28;20196;-76
2022/12/12 02:12:03;;;;;;;4.93;3.87;;;;;;;5.24;86.40;93642.19;5011157;28;20246;-76
2022/12/12 02:14:32;;;;;;;6.07;4.30;;;;;;;5.13;86.09;93643.63;5009892;28;20230;-76
2022/12/12 02:17:32;;;;;;;5.97;4.37;;;;;;;4.99;85.95;93641.28;4999226;28;20252;-76
2022/12/12 02:20:06;;;;;;;6.37;3.97;;;;;;;4.81;86.25;93619.28;4998395;28;20173;-76
2022/12/12 02:23:07;;;;;;;5.70;4.00;;;;;;;4.88;86.62;93630.50;5000106;28;20174;-76
2022/12/12 02:25:51;;;;;;;6.47;4.33;;;;;;;4.79;86.52;93634.31;5006332;28;20230;-76
2022/12/12 02:28:35;;;;;;;30.33;16.23;;;;;;;4.76;87.16;93632.13;4996595;28;20251;-76
2022/12/12 02:31:32;;;;;;;8.30;5.20;;;;;;;4.80;87.25;93629.91;4991952;28;20204;-76
2022/12/12 02:34:15;;;;;;;8.30;4.33;;;;;;;4.73;86.59;93647.38;4999929;28;20232;-76
2022/12/12 02:36:59;;;;;;;5.77;4.53;;;;;;;4.59;86.62;93630.97;5015008;28;20580;-76
2022/12/12 02:39:45;;;;;;;6.60;4.80;;;;;;;4.38;86.85;93615.59;5013778;28;20411;-76
2022/12/12 02:42:32;;;;;;;5.77;4.20;;;;;;;4.51;86.82;93633.78;5014917;28;20180;-76
2022/12/12 02:45:08;;;;;;;5.40;3.77;;;;;;;4.25;86.73;93613.81;5014932;28;20187;-76
2022/12/12 02:47:41;;;;;;;6.33;4.37;;;;;;;4.39;87.04;93636.25;5014838;28;20179;-76
2022/12/12 02:50:10;;;;;;;5.67;4.10;;;;;;;4.36;87.12;93633.22;5008634;28;20205;-76
2022/12/12 02:52:36;;;;;;;5.33;4.30;;;;;;;4.36;86.80;93618.41;4999074;28;20188;-75
2022/12/12 02:55:03;;;;;;;5.20;4.00;;;;;;;4.22;87.58;93616.03;5014518;28;20173;-76
2022/12/12 02:57:28;;;;;;;6.43;4.60;;;;;;;4.26;87.77;93612.00;5005788;28;20656;-76
2022/12/12 03:00:00;;;;;;;5.17;4.13;;;;;;;4.36;87.95;93622.81;4995166;28;20187;-76
2022/12/12 03:07:45;;;;;;;6.27;4.23;;;;;;;4.31;87.41;93625.22;4994994;28;20655;-76
2022/12/12 03:09:18;;;;;;;8.60;5.47;;;;;;;4.15;88.02;93639.47;4993225;28;20462;-75
2022/12/12 03:11:56;;;;;;;7.30;4.50;;;;;;;4.07;88.12;93614.44;4975989;28;20668;-75
2022/12/12 03:14:59;;;;;;;8.87;4.80;;;;;;;4.18;88.12;93621.63;4994066;28;20647;-75
2022/12/12 03:17:28;;;;;;;5.17;4.40;;;;;;;4.20;87.89;93631.03;4986656;28;20583;-75
2022/12/12 03:20:15;;;;;;;6.83;4.40;;;;;;;4.15;88.18;93627.22;4993656;28;20181;-75
2022/12/12 03:22:53;;;;;;;6.67;4.80;;;;;;;4.22;87.85;93629.84;5013913;28;20180;-75
2022/12/12 03:25:18;;;;;;;9.47;6.70;;;;;;;4.17;87.76;93621.81;5013835;28;20200;-75
2022/12/12 03:27:53;;;;;;;17.27;8.10;;;;;;;3.79;87.80;93578.22;5013707;28;20663;-75
2022/12/12 03:30:19;;;;;;;9.70;7.03;;;;;;;4.05;87.95;93631.28;5009435;28;20206;-75
2022/12/12 03:33:26;;;;;;;17.57;10.87;;;;;;;3.96;88.51;93641.09;4994006;28;20217;-75
2022/12/12 03:36:17;;;;;;;17.07;10.60;;;;;;;3.92;88.53;93645.06;4993654;28;20197;-75
2022/12/12 03:38:57;;;;;;;18.13;11.33;;;;;;;3.88;88.53;93643.09;4992887;28;20948;-75
2022/12/12 03:41:28;;;;;;;39.33;20.93;;;;;;;3.89;88.59;93644.69;4992972;28;20184;-75
2022/12/12 03:44:19;;;;;;;77.33;37.37;;;;;;;3.87;88.64;93659.69;4993991;28;20188;-76
2022/12/12 03:46:53;;;;;;;63.27;34.83;;;;;;;3.82;88.83;93654.28;4994204;28;20986;-76
2022/12/12 03:49:51;;;;;;;58.17;29.93;;;;;;;3.82;89.04;93662.88;4993818;28;20227;-75
2022/12/12 03:52:23;;;;;;;52.20;28.27;;;;;;;3.66;89.14;93645.06;4985089;28;20606;-76
2022/12/12 03:54:57;;;;;;;48.73;26.17;;;;;;;3.76;89.17;93667.09;4993966;28;20660;-76
2022/12/12 03:57:36;;;;;;;43.93;24.80;;;;;;;3.74;89.46;93669.09;5008597;28;20536;-76
2022/12/12 04:00:06;;;;;;;36.87;20.37;;;;;;;3.75;89.38;93664.69;5013348;28;20184;-76
2022/12/12 04:02:37;;;;;;;32.70;17.40;;;;;;;3.73;89.37;93664.06;5002706;28;20268;-76
2022/12/12 04:05:19;;;;;;;30.37;18.30;;;;;;;3.57;89.29;93649.66;4993622;28;20173;-76
2022/12/12 04:07:50;;;;;;;29.37;15.97;;;;;;;3.73;89.18;93669.28;5000300;28;20211;-75
2022/12/12 04:13:11;;;;;;;22.83;13.83;;;;;;;3.65;89.88;93669.47;4995976;28;20276;-76
2022/12/12 04:15:46;;;;;;;28.20;16.17;;;;;;;3.64;90.02;93671.25;5007932;28;20185;-75
2022/12/12 04:18:32;;;;;;;33.77;20.10;;;;;;;3.54;89.55;93662.25;4997724;28;20551;-75
2022/12/12 04:24:27;;;;;;;42.73;25.50;;;;;;;3.57;89.97;93690.47;4993335;28;20335;-76
2022/12/12 04:27:03;;;;;;;42.43;24.60;;;;;;;3.55;89.80;93693.25;4993060;28;20188;-75
2022/12/12 04:29:44;;;;;;;44.17;24.20;;;;;;;3.63;89.82;93705.31;4992780;28;20200;-75
2022/12/12 04:32:21;;;;;;;39.93;23.57;;;;;;;3.57;89.85;93704.28;4992869;28;20212;-75
2022/12/12 04:34:58;;;;;;;36.90;22.57;;;;;;;3.49;89.84;93683.66;4993108;28;20274;-77
2022/12/12 04:37:31;;;;;;;38.73;21.70;;;;;;;3.56;89.96;93689.66;4990556;28;20284;-76
2022/12/12 04:39:59;;;;;;;39.83;22.97;;;;;;;3.38;89.75;93669.41;4988405;28;20179;-77
2022/12/12 04:42:29;;;;;;;35.30;20.37;;;;;;;3.49;90.60;93693.25;4986449;28;20184;-76
2022/12/12 04:45:02;;;;;;;41.27;22.90;;;;;;;3.48;90.36;93686.44;4990266;28;20267;-77
2022/12/12 04:47:30;;;;;;;38.03;21.77;;;;;;;3.44;91.06;93687.84;4991327;28;20296;-77
2022/12/12 04:49:57;;;;;;;37.10;20.80;;;;;;;3.45;91.53;93687.66;4993033;28;20255;-77
2022/12/12 04:52:25;;;;;;;44.73;23.47;;;;;;;3.48;91.16;93694.25;4999503;28;20181;-77
2022/12/12 04:55:05;;;;;;;43.30;23.07;;;;;;;3.36;90.89;93675.81;4994662;28;20200;-77
2022/12/12 04:57:38;;;;;;;49.60;25.57;;;;;;;3.54;90.95;93690.88;4992811;28;20184;-77
2022/12/12 05:00:09;;;;;;;48.37;24.67;;;;;;;3.39;91.32;93665.00;5000546;28;20183;-77
2022/12/12 05:02:59;;;;;;;54.23;25.50;;;;;;;3.52;91.35;93698.88;5008407;28;20191;-77
2022/12/12 05:05:37;;;;;;;45.53;25.13;;;;;;;3.49;91.31;93693.25;4991167;28;20177;-77
2022/12/12 05:08:18;;;;;;;54.57;28.57;;;;;;;3.47;91.23;93695.22;5006824;28;20186;-77
2022/12/12 05:10:48;;;;;;;52.20;26.80;;;;;;;3.22;91.64;93656.75;4996548;28;20228;-77
2022/12/12 05:13:20;;;;;;;46.73;26.00;;;;;;;3.55;91.56;93697.66;5010890;28;20192;-77
2022/12/12 05:15:48;;;;;;;52.10;26.37;;;;;;;3.48;91.60;93678.63;5008204;28;20181;-77
2022/12/12 05:18:14;;;;;;;50.90;27.37;;;;;;;3.68;91.49;93695.09;4996435;28;20651;-77
2022/12/12 05:20:39;;;;;;;55.03;27.37;;;;;;;3.40;91.76;93646.63;5012077;28;20187;-77
2022/12/12 05:23:05;;;;;;;49.17;26.17;;;;;;;3.66;92.36;93691.88;5006193;28;20239;-76
2022/12/12 05:25:31;;;;;;;48.73;25.43;;;;;;;3.57;92.29;93693.06;4992045;28;20181;-76
2022/12/12 05:27:56;;;;;;;56.50;28.03;;;;;;;3.59;91.99;93678.06;4992344;28;20207;-76
2022/12/12 05:30:22;;;;;;;49.00;23.30;;;;;;;3.57;92.06;93687.88;4991695;28;20204;-77
2022/12/12 05:32:49;;;;;;;73.33;35.83;;;;;;;3.60;92.14;93684.88;4991778;28;20291;-77
2022/12/12 05:35:14;;;;;;;55.63;28.93;;;;;;;3.68;92.16;93695.09;4997802;28;20204;-77
2022/12/12 05:37:40;;;;;;;60.27;30.40;;;;;;;3.70;92.01;93688.72;5003717;28;20683;-76
2022/12/12 05:40:09;;;;;;;57.10;31.47;;;;;;;3.91;91.93;93711.13;4991058;28;20199;-77
2022/12/12 05:42:35;;;;;;;61.20;30.20;;;;;;;3.84;91.98;93696.53;4994447;28;20172;-77
2022/12/12 05:45:00;;;;;;;58.17;31.07;;;;;;;3.88;92.31;93700.34;5011132;28;20168;-77
2022/12/12 05:47:26;;;;;;;61.33;34.57;;;;;;;3.83;92.73;93703.53;5003896;28;20173;-77
2022/12/12 05:49:51;;;;;;;92.10;40.83;;;;;;;3.82;92.52;93704.53;5010901;28;20274;-77
2022/12/12 05:52:17;;;;;;;61.40;33.00;;;;;;;3.90;92.42;93712.13;5003105;28;20234;-77
2022/12/12 05:54:42;;;;;;;47.03;24.33;;;;;;;4.01;92.10;93719.38;4997128;28;20651;-76
2022/12/12 05:57:08;;;;;;;38.33;23.30;;;;;;;4.06;91.87;93724.00;5000574;28;20576;-76
2022/12/12 05:59:33;;;;;;;50.57;28.03;;;;;;;3.98;92.10;93717.16;4990795;28;20208;-76
2022/12/12 06:01:59;;;;;;;133.97;54.90;;;;;;;4.07;92.18;93728.19;4995152;28;20632;-77
2022/12/12 06:04:24;;;;;;;155.53;62.33;;;;;;;3.99;92.07;93708.34;5011391;28;20180;-76
2022/12/12 06:06:50;;;;;;;155.83;72.87;;;;;;;4.16;92.60;93721.78;5011276;28;20211;-76
2022/12/12 06:09:15;;;;;;;140.97;71.77;;;;;;;4.17;92.53;93715.56;5011251;28;20279;-77
2022/12/12 06:11:41;;;;;;;111.93;53.17;;;;;;;4.30;91.83;93728.59;5011147;28;20219;-77
2022/12/12 06:14:06;;;;;;;80.80;42.33;;;;;;;4.24;91.41;93726.78;4996824;28;20187;-77
2022/12/12 06:16:33;;;;;;;65.60;37.57;;;;;;;4.29;90.76;93744.44;4991539;28;20184;-76
2022/12/12 06:18:59;;;;;;;60.87;33.93;;;;;;;4.13;90.99;93720.41;4991829;28;20177;-76
2022/12/12 06:21:24;;;;;;;56.63;31.20;;;;;;;4.04;90.69;93702.56;4990334;28;20191;-76
2022/12/12 06:23:50;;;;;;;60.43;35.63;;;;;;;3.98;90.96;93693.72;4997875;28;20187;-76
2022/12/12 06:26:17;;;;;;;65.87;35.83;;;;;;;4.34;90.54;93758.44;4994113;28;20208;-77
2022/12/12 06:28:43;;;;;;;61.53;34.77;;;;;;;4.18;90.45;93749.22;4991438;28;20264;-77
2022/12/12 06:31:09;;;;;;;65.27;35.43;;;;;;;4.24;91.24;93763.25;4991533;28;20664;-77
2022/12/12 06:33:35;;;;;;;61.10;34.37;;;;;;;4.27;91.17;93769.88;4991149;28;20235;-76
2022/12/12 06:36:04;;;;;;;60.07;32.77;;;;;;;4.32;90.95;93765.69;4999966;28;20189;-76
2022/12/12 06:38:30;;;;;;;49.35;30.85;;;;;;;4.40;90.86;93768.09;4991161;28;20435;-76
2022/12/12 06:40:56;;;;;;;47.00;28.30;;;;;;;4.41;90.75;93777.47;4993603;28;20575;-76
2022/12/12 06:43:21;;;;;;;38.97;22.80;;;;;;;4.40;90.51;93768.09;4989964;28;20176;-76
2022/12/12 06:45:47;;;;;;;37.73;20.97;;;;;;;3.92;90.54;93710.16;5000687;28;20187;-76
2022/12/12 06:48:12;;;;;;;36.17;20.10;;;;;;;4.26;90.60;93765.66;5007755;28;20173;-76
2022/12/12 06:50:39;;;;;;;32.50;19.07;;;;;;;4.46;90.58;93782.09;4991060;28;20688;-76
2022/12/12 06:53:05;;;;;;;37.00;20.10;;;;;;;4.51;90.28;93769.28;5000647;28;20184;-75
2022/12/12 06:55:30;;;;;;;35.60;19.73;;;;;;;4.41;90.35;93740.25;5010503;28;20191;-75
2022/12/12 06:57:55;;;;;;;35.73;19.43;;;;;;;4.63;90.09;93791.13;5010513;28;20628;-75
2022/12/12 07:00:21;;;;;;;35.20;20.77;;;;;;;4.71;90.38;93790.94;4996365;28;20177;-74
2022/12/12 07:02:46;;;;;;;37.57;19.67;;;;;;;4.72;90.40;93796.94;4990880;28;20193;-74
2022/12/12 07:05:12;;;;;;;29.70;19.07;;;;;;;4.86;90.23;93796.72;4991051;28;20181;-75
2022/12/12 07:07:37;;;;;;;32.03;18.53;;;;;;;4.97;89.75;93802.34;4990867;28;20256;-75
2022/12/12 07:10:03;;;;;;;29.07;16.00;;;;;;;5.18;89.37;93799.50;4990829;28;20680;-75
2022/12/12 07:12:29;;;;;;;30.40;17.47;;;;;;;5.06;88.49;93752.38;4993878;28;20192;-75
2022/12/12 07:14:54;;;;;;;39.07;21.67;;;;;;;5.29;87.15;93778.00;4994517;28;20185;-75
2022/12/12 07:17:20;;;;;;;32.60;19.87;;;;;;;5.50;86.94;93810.84;4994594;28;20185;-75
2022/12/12 07:19:45;;;;;;;53.30;29.30;;;;;;;5.60;86.47;93796.38;4994269;28;20187;-75
2022/12/12 07:22:10;;;;;;;58.33;33.50;;;;;;;5.68;86.27;93801.38;4993140;28;20177;-75
2022/12/12 07:24:36;;;;;;;45.00;22.03;;;;;;;5.81;85.64;93825.78;5011899;28;20209;-75
2022/12/12 07:27:02;;;;;;;22.57;14.07;;;;;;;5.77;85.50;93827.25;5013483;28;20168;-75
2022/12/12 07:29:27;;;;;;;24.60;13.80;;;;;;;5.77;85.31;93829.84;5013581;28;20266;-75
2022/12/12 07:31:53;;;;;;;17.17;10.60;;;;;;;5.78;84.87;93828.84;5013787;28;20673;-75
2022/12/12 07:34:18;;;;;;;13.97;8.77;;;;;;;5.65;84.17;93835.69;5013410;28;20221;-75
2022/12/12 07:36:44;;;;;;;16.60;10.10;;;;;;;5.70;84.58;93845.53;5009898;28;20184;-75
2022/12/12 07:39:09;;;;;;;17.27;10.37;;;;;;;5.63;85.32;93847.34;4994071;28;20185;-75
2022/12/12 07:41:35;;;;;;;17.40;11.00;;;;;;;5.53;86.33;93832.13;4994040;28;20184;-75
2022/12/12 07:44:00;;;;;;;16.47;10.80;;;;;;;5.73;85.97;93850.34;4994011;28;20216;-75
2022/12/12 07:46:26;;;;;;;15.57;10.13;;;;;;;6.07;85.30;93872.72;4989381;28;20272;-75
2022/12/12 07:48:52;;;;;;;18.67;10.97;;;;;;;6.23;84.54;93869.66;4988633;28;20649;-74
2022/12/12 07:51:18;;;;;;;19.53;11.73;;;;;;;6.43;83.78;93869.56;4992565;28;20668;-75
2022/12/12 07:53:44;;;;;;;20.13;11.87;;;;;;;6.57;82.99;93867.69;4987899;28;20197;-75
2022/12/12 07:56:12;;;;;;;27.53;18.93;;;;;;;6.67;82.22;93860.94;4988084;28;20185;-76
2022/12/12 07:58:38;;;;;;;34.97;22.57;;;;;;;6.67;83.03;93858.34;4993875;28;20200;-75
2022/12/12 08:01:11;;;;;;;27.97;16.33;;;;;;;6.55;82.16;93857.44;4993441;28;20217;-75
2022/12/12 08:03:37;;;;;;;27.87;16.83;;;;;;;6.59;82.35;93871.66;4993463;28;20250;-77
2022/12/12 08:06:04;;;;;;;29.13;17.17;;;;;;;6.36;82.19;93845.28;4993331;28;20562;-75
2022/12/12 08:08:30;;;;;;;33.23;18.07;;;;;;;6.53;82.39;93880.34;4993344;28;20177;-76
2022/12/12 08:10:55;;;;;;;29.00;18.43;;;;;;;6.57;83.75;93886.78;4991611;28;20228;-75
2022/12/12 08:13:21;;;;;;;33.07;18.90;;;;;;;6.49;81.54;93887.00;4990451;28;20184;-75
2022/12/12 08:15:46;;;;;;;31.60;20.40;;;;;;;6.48;81.39;93890.66;4986538;28;20184;-75
2022/12/12 08:18:11;;;;;;;38.30;22.37;;;;;;;6.47;81.19;93891.66;4986118;28;20185;-75
2022/12/12 08:20:40;;;;;;;38.93;23.87;;;;;;;6.46;82.12;93895.28;4976929;28;20212;-75
2022/12/12 08:23:06;;;;;;;42.10;23.43;;;;;;;6.38;82.94;93895.53;4996214;28;20181;-74
2022/12/12 08:25:34;;;;;;;43.50;23.80;;;;;;;6.45;84.06;93904.13;5012911;28;20219;-75
2022/12/12 08:27:59;;;;;;;39.70;22.50;;;;;;;6.43;83.56;93900.91;5012796;28;20184;-75
2022/12/12 08:30:24;;;;;;;40.03;21.93;;;;;;;6.60;84.50;93903.84;4993506;28;20578;-75
2022/12/12 08:32:50;;;;;;;37.83;20.57;;;;;;;6.75;84.20;93904.34;4992924;28;20616;-75
2022/12/12 08:35:15;;;;;;;34.33;19.47;;;;;;;6.76;83.11;93901.53;5001984;28;20181;-75
2022/12/12 08:37:41;;;;;;;31.97;19.23;;;;;;;6.82;82.40;93912.97;5010789;28;20630;-76
2022/12/12 08:40:07;;;;;;;30.30;17.00;;;;;;;6.76;82.71;93896.28;4983188;28;20178;-77
2022/12/12 08:42:32;;;;;;;31.33;17.30;;;;;;;6.91;82.67;93903.88;4992496;28;20188;-75
2022/12/12 08:44:58;;;;;;;35.40;20.40;;;;;;;6.91;82.46;93897.84;4992458;28;20177;-76
2022/12/12 08:47:23;;;;;;;29.70;16.63;;;;;;;6.92;82.44;93910.69;4991780;28;20215;-76
2022/12/12 08:49:49;;;;;;;29.10;17.07;;;;;;;6.99;82.10;93903.59;4992547;28;20209;-75
2022/12/12 08:52:14;;;;;;;36.03;19.20;;;;;;;6.92;82.48;93900.22;4997264;28;20176;-75
2022/12/12 08:54:39;;;;;;;43.07;23.33;;;;;;;6.57;81.91;93899.06;4996669;28;20228;-75
2022/12/12 08:57:05;;;;;;;41.77;23.23;;;;;;;6.47;81.99;93885.63;4992067;28;20307;-76
2022/12/12 08:59:30;;;;;;;40.87;23.90;;;;;;;6.68;83.75;93898.38;4991647;28;20181;-75
2022/12/12 09:01:56;;;;;;;47.17;26.23;;;;;;;6.87;83.78;93891.41;4991106;28;20264;-76
2022/12/12 09:04:21;;;;;;;49.33;30.43;;;;;;;6.87;83.82;93876.50;4992485;28;20181;-76
2022/12/12 09:06:47;;;;;;;45.03;27.63;;;;;;;7.04;83.01;93888.06;4992285;28;20184;-77
2022/12/12 09:09:12;;;;;;;47.77;25.83;;;;;;;7.10;82.18;93884.59;4990521;28;20177;-77
2022/12/12 09:11:38;;;;;;;37.73;23.13;;;;;;;7.15;81.90;93883.97;4992366;28;20181;-77
2022/12/12 09:14:04;;;;;;;37.20;22.80;;;;;;;7.11;81.88;93865.25;5001628;28;20675;-77
2022/12/12 09:16:29;;;;;;;40.43;20.73;;;;;;;7.00;81.56;93876.44;5002032;28;20310;-77
2022/12/12 09:18:55;;;;;;;28.87;15.90;;;;;;;6.99;81.87;93882.69;5001031;28;20644;-77
2022/12/12 09:21:21;;;;;;;27.37;14.93;;;;;;;7.02;82.13;93884.84;4998237;28;20184;-76
2022/12/12 09:23:47;;;;;;;27.73;15.80;;;;;;;6.89;82.56;93852.78;4996322;28;20187;-76
2022/12/12 09:26:12;;;;;;;25.03;14.40;;;;;;;7.16;82.83;93883.75;4992269;28;20189;-77
2022/12/12 09:28:39;;;;;;;24.37;14.63;;;;;;;7.17;83.08;93887.97;4995618;28;20583;-77
2022/12/12 09:31:09;;;;;;;31.43;18.23;;;;;;;7.24;83.02;93872.22;5006052;28;20212;-77
2022/12/12 09:33:34;;;;;;;21.77;12.33;;;;;;;7.22;82.62;93866.38;4991725;28;20710;-77
2022/12/12 09:36:03;;;;;;;21.50;12.50;;;;;;;6.99;82.61;93826.94;4991713;28;20185;-76
2022/12/12 09:38:29;;;;;;;24.17;13.83;;;;;;;7.26;82.76;93866.78;4988761;28;20177;-76
2022/12/12 09:41:08;;;;;;;23.03;13.67;;;;;;;7.30;82.84;93863.50;4997264;28;20234;-76
2022/12/12 09:43:43;;;;;;;23.73;12.23;;;;;;;7.36;82.58;93865.25;4998125;28;20181;-76
2022/12/12 09:46:25;;;;;;;22.97;12.57;;;;;;;7.40;82.13;93863.00;5010268;28;20180;-76
2022/12/12 09:48:51;;;;;;;26.63;13.93;;;;;;;7.37;81.41;93858.19;5007339;28;20267;-75
2022/12/12 09:51:17;;;;;;;24.03;14.40;;;;;;;7.33;81.39;93838.72;5007232;28;20207;-76
2022/12/12 09:53:45;;;;;;;20.40;12.70;;;;;;;7.52;80.21;93866.53;5003983;28;20176;-76
2022/12/12 09:56:16;;;;;;;26.20;15.23;;;;;;;7.55;80.69;93866.88;4996196;28;20177;-76
2022/12/12 09:58:45;;;;;;;22.47;13.90;;;;;;;7.55;80.75;93842.50;5010587;28;20180;-78
2022/12/12 10:01:26;;;;;;;26.10;13.80;;;;;;;7.66;80.26;93862.75;4999816;28;20719;-77
2022/12/12 10:04:27;;;;;;;30.03;17.07;;;;;;;7.75;80.68;93856.22;5004702;28;20184;-79
2022/12/12 10:07:07;;;;;;;33.03;18.53;;;;;;;7.81;79.78;93863.19;4994476;28;20187;-77
2022/12/12 10:09:38;;;;;;;32.50;18.37;;;;;;;7.78;78.47;93852.38;4992332;28;20266;-77
2022/12/12 10:12:06;;;;;;;27.80;17.43;;;;;;;7.64;78.73;93853.50;5005504;28;20243;-75
2022/12/12 10:14:37;;;;;;;29.63;17.57;;;;;;;7.61;79.62;93854.72;4998100;28;20168;-76
2022/12/12 10:17:07;;;;;;;31.13;17.77;;;;;;;7.54;79.68;93835.66;4991741;28;20181;-77
2022/12/12 10:19:40;;;;;;;25.93;17.30;;;;;;;7.66;79.74;93848.84;4995802;28;20177;-77
2022/12/12 10:22:14;;;;;;;27.80;16.63;;;;;;;7.70;80.04;93835.09;5004911;28;20210;-77
2022/12/12 10:24:47;;;;;;;27.57;16.93;;;;;;;7.82;79.66;93835.19;4983749;28;20709;-77
2022/12/12 10:27:13;;;;;;;28.03;17.87;;;;;;;7.85;79.86;93835.56;4998805;28;20257;-77
2022/12/12 10:29:45;;;;;;;33.33;20.17;;;;;;;7.90;80.41;93824.41;5001492;28;20200;-77
2022/12/12 10:32:26;;;;;;;30.37;16.30;;;;;;;8.10;79.43;93827.59;4990343;28;20259;-78
2022/12/12 10:34:58;;;;;;;25.90;14.03;;;;;;;8.08;78.02;93820.97;5000241;28;20687;-77
2022/12/12 10:37:32;;;;;;;23.17;10.83;;;;;;;8.27;76.45;93819.91;5000096;28;20195;-77
2022/12/12 10:40:15;;;;;;;15.80;10.00;;;;;;;8.41;75.77;93805.63;5004118;28;20177;-77
2022/12/12 10:42:47;;;;;;;20.73;11.63;;;;;;;8.18;76.68;93795.84;4992929;28;20180;-76
2022/12/12 10:45:39;;;;;;;22.63;13.07;;;;;;;8.05;78.43;93789.94;4991160;28;20174;-76
2022/12/12 10:48:05;;;;;;;25.30;13.83;;;;;;;8.14;78.48;93799.09;5006949;28;20571;-77
2022/12/12 10:50:36;;;;;;;26.80;15.20;;;;;;;8.03;78.83;93776.28;5012378;28;20201;-78
2022/12/12 10:53:05;;;;;;;30.23;14.83;;;;;;;8.38;78.46;93811.31;5008613;28;20278;-76
2022/12/12 10:55:43;;;;;;;35.50;16.60;;;;;;;8.43;78.25;93800.16;5004028;28;20217;-77
2022/12/12 10:58:09;;;;;;;37.63;17.23;;;;;;;8.56;78.05;93806.00;5008409;28;20183;-77
2022/12/12 11:00:37;;;;;;;31.93;18.57;;;;;;;8.42;77.90;93809.03;5011277;28;20168;-77
2022/12/12 11:03:25;;;;;;;34.07;19.00;;;;;;;8.40;79.26;93808.47;5003164;28;20552;-77
2022/12/12 11:05:52;;;;;;;36.10;21.37;;;;;;;8.33;79.17;93813.81;5006939;28;20195;-77
2022/12/12 11:08:25;;;;;;;35.97;20.77;;;;;;;8.31;79.35;93816.63;4997749;28;20178;-77
2022/12/12 11:11:02;;;;;;;36.10;20.70;;;;;;;8.27;78.93;93812.03;5003407;28;20204;-76
2022/12/12 11:13:28;;;;;;;36.47;19.07;;;;;;;8.28;79.92;93811.84;5001413;28;20620;-77
2022/12/12 11:15:56;;;;;;;40.30;22.13;;;;;;;8.31;80.44;93816.63;4990609;28;20185;-77
2022/12/12 11:18:24;;;;;;;40.63;20.30;;;;;;;8.31;80.05;93818.47;4993438;28;20190;-76
2022/12/12 11:21:15;;;;;;;34.40;20.03;;;;;;;8.21;80.31;93811.13;4997724;28;20176;-77
2022/12/12 11:23:51;;;;;;;43.53;19.80;;;;;;;8.25;80.32;93803.59;4989890;28;20189;-76
2022/12/12 11:26:19;;;;;;;40.87;21.03;;;;;;;8.26;80.24;93798.13;4995888;28;20177;-76
2022/12/12 11:28:50;;;;;;;42.97;20.77;;;;;;;8.17;79.82;93782.94;4990740;28;20185;-76
2022/12/12 11:31:20;;;;;;;38.40;20.23;;;;;;;8.38;80.30;93800.03;4992844;28;20240;-77
2022/12/12 11:33:53;;;;;;;34.13;18.50;;;;;;;8.33;79.37;93798.06;4993716;28;20239;-76
2022/12/12 11:36:32;;;;;;;38.57;22.30;;;;;;;8.05;79.96;93768.97;4996490;28;20560;-76
2022/12/12 11:39:00;;;;;;;35.53;18.53;;;;;;;8.13;80.04;93781.81;4992829;28;20251;-76
2022/12/12 11:41:25;;;;;;;38.23;19.57;;;;;;;8.15;79.78;93795.47;5007476;28;20317;-76
2022/12/12 11:43:50;;;;;;;34.97;19.53;;;;;;;8.07;80.22;93793.16;5013767;28;20290;-76
2022/12/12 11:46:18;;;;;;;34.37;19.33;;;;;;;8.07;81.27;93782.66;4995137;28;20189;-76
2022/12/12 11:48:52;;;;;;;34.13;19.77;;;;;;;8.20;81.99;93787.75;4994135;28;20633;-76
2022/12/12 11:51:38;;;;;;;38.57;20.63;;;;;;;8.29;82.58;93776.72;4993847;28;20203;-75
2022/12/12 11:54:19;;;;;;;44.10;22.00;;;;;;;8.40;82.09;93782.25;5001041;28;20271;-77